Time;durP1;ratioP1;P1;durP2;ratioP2;P2;SDS_P1;SDS_P2;PMS_P1;PMS_P2;Temp;Humidity;BMP_temperature;BMP_pressure;BME280_temperature;BME280_humidity;BME280_pressure;Samples;Min_cycle;Max_cycle;Signal;HPM_P1;HPM_P2
2022/12/03 00:02:12;;;;;;;28.00;13.82;;;4.60;99.90;;;;;;4967819;29;20066;-79
2022/12/03 00:04:39;;;;;;;32.10;13.45;;;4.50;99.90;;;;;;4958445;29;20061;-80
2022/12/03 00:07:05;;;;;;;24.48;13.00;;;4.50;99.90;;;;;;4963069;28;20112;-78
2022/12/03 00:09:32;;;;;;;27.38;13.50;;;4.50;99.90;;;;;;4976980;28;20048;-77
2022/12/03 00:11:59;;;;;;;25.17;14.23;;;4.50;99.90;;;;;;4963981;28;20105;-79
2022/12/03 00:14:25;;;;;;;31.88;13.82;;;4.50;99.90;;;;;;4964855;28;20046;-79
2022/12/03 00:16:52;;;;;;;26.45;12.90;;;4.50;99.90;;;;;;4983175;28;20050;-79
2022/12/03 00:19:19;;;;;;;25.88;13.10;;;4.50;99.90;;;;;;4983703;28;20134;-79
2022/12/03 00:21:46;;;;;;;27.05;12.95;;;4.50;99.90;;;;;;4980238;28;20055;-79
2022/12/03 00:24:13;;;;;;;25.05;13.18;;;4.40;99.90;;;;;;4978358;28;20051;-79
2022/12/03 00:26:39;;;;;;;24.73;13.05;;;4.40;99.90;;;;;;4976585;28;20081;-79
2022/12/03 00:29:06;;;;;;;23.27;13.02;;;4.40;99.90;;;;;;4956611;28;20047;-79
2022/12/03 00:31:33;;;;;;;25.85;13.57;;;4.40;99.90;;;;;;4965622;29;20051;-79
2022/12/03 00:33:59;;;;;;;26.05;12.75;;;4.40;99.90;;;;;;4967404;28;20515;-79
2022/12/03 00:36:26;;;;;;;25.08;12.63;;;4.40;99.90;;;;;;4955526;28;20047;-79
2022/12/03 00:38:53;;;;;;;23.73;13.07;;;4.40;99.90;;;;;;4972434;28;20092;-79
2022/12/03 00:41:19;;;;;;;22.15;12.75;;;4.40;99.90;;;;;;4983563;28;20061;-79
2022/12/03 00:43:46;;;;;;;25.55;12.98;;;4.40;99.90;;;;;;4980372;28;20063;-79
2022/12/03 00:46:13;;;;;;;24.52;12.40;;;4.40;99.90;;;;;;4967879;28;20055;-79
2022/12/03 00:48:46;;;;;;;27.73;12.85;;;4.40;99.90;;;;;;4975163;28;20051;-79
2022/12/03 00:51:13;;;;;;;27.20;13.25;;;4.40;99.90;;;;;;4978768;28;20061;-79
2022/12/03 00:53:40;;;;;;;23.30;12.38;;;4.30;99.90;;;;;;4975395;28;20061;-79
2022/12/03 00:56:07;;;;;;;24.13;12.48;;;4.40;99.90;;;;;;4972570;28;20051;-79
2022/12/03 00:58:33;;;;;;;22.58;12.88;;;4.40;99.90;;;;;;4969955;28;20047;-78
2022/12/03 01:01:00;;;;;;;25.70;13.55;;;4.40;99.90;;;;;;4979292;28;20086;-79
2022/12/03 01:03:27;;;;;;;23.30;12.10;;;4.50;99.90;;;;;;4958054;28;20047;-79
2022/12/03 01:05:53;;;;;;;23.88;12.70;;;4.40;99.90;;;;;;4974807;28;20051;-79
2022/12/03 01:08:20;;;;;;;21.42;11.50;;;4.40;99.90;;;;;;4957842;28;20053;-79
2022/12/03 01:10:47;;;;;;;23.75;12.75;;;4.40;99.90;;;;;;4960396;28;20056;-79
2022/12/03 01:13:13;;;;;;;23.00;11.80;;;4.50;99.90;;;;;;4979540;28;20135;-79
2022/12/03 01:15:40;;;;;;;23.35;12.00;;;4.40;99.90;;;;;;4966135;28;20058;-79
2022/12/03 01:18:07;;;;;;;22.02;12.48;;;4.40;99.90;;;;;;4967341;28;20055;-79
2022/12/03 01:20:35;;;;;;;22.35;11.85;;;4.40;99.90;;;;;;4970130;28;20062;-79
2022/12/03 01:23:01;;;;;;;20.83;11.25;;;4.40;99.90;;;;;;4985966;28;20104;-79
2022/12/03 01:25:28;;;;;;;20.10;11.20;;;4.40;99.90;;;;;;4970227;28;20047;-79
2022/12/03 01:27:55;;;;;;;21.98;13.02;;;4.40;99.90;;;;;;4981266;28;20553;-79
2022/12/03 01:30:22;;;;;;;21.55;12.05;;;4.30;99.90;;;;;;4979137;28;20055;-78
2022/12/03 01:32:48;;;;;;;22.25;11.25;;;4.30;99.90;;;;;;4978128;28;20056;-79
2022/12/03 01:35:15;;;;;;;22.88;12.73;;;4.30;99.90;;;;;;4976516;28;20057;-79
2022/12/03 01:37:42;;;;;;;22.70;12.43;;;4.30;99.90;;;;;;4967836;28;20051;-79
2022/12/03 01:40:12;;;;;;;22.55;11.65;;;4.40;99.90;;;;;;4953711;28;20047;-80
2022/12/03 01:42:40;;;;;;;19.67;11.63;;;4.40;99.90;;;;;;4956249;28;20053;-79
2022/12/03 01:45:16;;;;;;;19.60;11.65;;;4.40;99.90;;;;;;4986895;28;20110;-79
2022/12/03 01:47:43;;;;;;;21.45;12.13;;;4.40;99.90;;;;;;4985103;28;20055;-79
2022/12/03 01:50:36;;;;;;;19.48;11.02;;;4.40;99.90;;;;;;4982944;28;20051;-79
2022/12/03 01:53:03;;;;;;;20.83;11.23;;;4.40;99.90;;;;;;4959794;28;20042;-79
2022/12/03 01:55:30;;;;;;;18.48;11.57;;;4.40;99.90;;;;;;4987509;28;20133;-80
2022/12/03 01:57:59;;;;;;;19.75;11.18;;;4.40;99.90;;;;;;4981754;28;20150;-79
2022/12/03 02:00:27;;;;;;;19.55;11.98;;;4.40;99.90;;;;;;4972183;28;20074;-80
2022/12/03 02:02:56;;;;;;;20.17;11.30;;;4.40;99.90;;;;;;4970248;28;20069;-79
2022/12/03 02:05:26;;;;;;;19.65;11.95;;;4.50;99.90;;;;;;4983979;28;20125;-79
2022/12/03 02:07:52;;;;;;;19.48;11.27;;;4.40;99.90;;;;;;4984687;28;20117;-79
2022/12/03 02:10:24;;;;;;;19.13;11.82;;;4.40;99.90;;;;;;4963935;28;20089;-80
2022/12/03 02:12:59;;;;;;;20.88;11.60;;;4.40;99.90;;;;;;4975156;28;20058;-79
2022/12/03 02:15:26;;;;;;;17.38;10.90;;;4.40;99.90;;;;;;4976144;28;20488;-79
2022/12/03 02:17:54;;;;;;;21.20;11.95;;;4.40;99.90;;;;;;4972496;28;20074;-79
2022/12/03 02:20:21;;;;;;;19.42;11.63;;;4.40;99.90;;;;;;4953613;28;20516;-79
2022/12/03 02:23:06;;;;;;;21.85;11.73;;;4.40;99.90;;;;;;4968004;28;20133;-79
2022/12/03 02:25:34;;;;;;;21.20;11.68;;;4.40;99.90;;;;;;4981387;28;20055;-79
2022/12/03 02:28:03;;;;;;;20.13;11.60;;;4.30;99.90;;;;;;4968617;28;20047;-80
2022/12/03 02:30:30;;;;;;;18.85;10.85;;;4.30;99.90;;;;;;4971598;28;20055;-79
2022/12/03 02:32:58;;;;;;;19.20;10.93;;;4.30;99.90;;;;;;4955817;28;20134;-79
2022/12/03 02:35:27;;;;;;;19.50;11.95;;;4.20;99.90;;;;;;4958220;28;20071;-78
2022/12/03 02:38:02;;;;;;;15.13;9.77;;;4.20;99.90;;;;;;4960738;28;20058;-79
2022/12/03 02:40:32;;;;;;;21.10;11.07;;;4.20;99.90;;;;;;4982016;28;20293;-79
2022/12/03 02:43:00;;;;;;;;;;;4.10;99.90;;;;;;4966398;28;20047;-79
2022/12/03 02:45:37;;;;;;;20.65;12.02;;;4.20;99.90;;;;;;4970230;28;20013;-79
2022/12/03 02:48:06;;;;;;;16.67;10.10;;;4.10;99.90;;;;;;4986960;28;20138;-78
2022/12/03 02:50:39;;;;;;;18.35;11.68;;;4.10;99.90;;;;;;4987839;28;20465;-79
2022/12/03 02:53:10;;;;;;;20.50;11.23;;;4.20;99.90;;;;;;4980240;28;20061;-79
2022/12/03 02:55:37;;;;;;;19.55;11.98;;;4.20;99.90;;;;;;4958725;28;20150;-79
2022/12/03 02:58:05;;;;;;;19.13;11.55;;;4.20;99.90;;;;;;4964683;28;20070;-79
2022/12/03 03:00:34;;;;;;;20.77;11.90;;;4.20;99.90;;;;;;4971149;28;20053;-78
2022/12/03 03:03:02;;;;;;;22.15;12.43;;;4.10;99.90;;;;;;4968659;28;20050;-79
2022/12/03 03:05:31;;;;;;;20.40;12.60;;;4.10;99.90;;;;;;4966805;28;20055;-79
2022/12/03 03:07:59;;;;;;;21.42;12.15;;;4.10;99.90;;;;;;4972969;28;20061;-79
2022/12/03 03:10:27;;;;;;;18.42;11.20;;;4.10;99.90;;;;;;4967729;28;20050;-79
2022/12/03 03:12:55;;;;;;;25.98;13.02;;;4.10;99.90;;;;;;4963139;28;20043;-79
2022/12/03 03:15:23;;;;;;;21.42;11.40;;;4.10;99.90;;;;;;4979514;28;20050;-79
2022/12/03 03:17:50;;;;;;;18.77;11.13;;;4.10;99.90;;;;;;4959564;28;20460;-79
2022/12/03 03:20:17;;;;;;;21.80;11.70;;;4.00;99.90;;;;;;4957661;28;20077;-79
2022/12/03 03:22:44;;;;;;;18.65;11.13;;;4.00;99.90;;;;;;4974229;28;20059;-79
2022/12/03 03:25:15;;;;;;;20.63;12.40;;;4.00;99.90;;;;;;4981848;28;20061;-79
2022/12/03 03:27:44;;;;;;;21.23;12.73;;;4.00;99.90;;;;;;4984294;28;20440;-79
2022/12/03 03:30:12;;;;;;;21.20;12.07;;;3.90;99.90;;;;;;4984409;28;20049;-78
2022/12/03 03:32:40;;;;;;;20.83;12.48;;;3.90;99.90;;;;;;4965604;28;20048;-78
2022/12/03 03:35:08;;;;;;;20.73;12.82;;;3.90;99.90;;;;;;4981709;28;20062;-79
2022/12/03 03:37:35;;;;;;;20.48;11.82;;;4.00;99.90;;;;;;4980232;28;20047;-79
2022/12/03 03:40:02;;;;;;;17.58;10.63;;;4.00;99.90;;;;;;4978924;28;20050;-80
2022/12/03 03:42:29;;;;;;;20.05;12.85;;;3.90;99.90;;;;;;4980158;28;20119;-79
2022/12/03 03:44:57;;;;;;;21.98;11.52;;;3.90;99.90;;;;;;4977925;28;20078;-79
2022/12/03 03:47:24;;;;;;;19.80;12.23;;;3.90;99.90;;;;;;4959410;28;20477;-79
2022/12/03 03:49:51;;;;;;;22.40;13.07;;;4.00;99.90;;;;;;4973085;28;20050;-79
2022/12/03 03:52:19;;;;;;;20.35;12.38;;;4.00;99.90;;;;;;4981751;28;20053;-79
2022/12/03 03:54:46;;;;;;;22.13;13.52;;;4.00;99.90;;;;;;4961605;28;20047;-79
2022/12/03 03:57:13;;;;;;;19.35;11.15;;;4.00;99.90;;;;;;4977488;28;20047;-79
2022/12/03 03:59:40;;;;;;;22.77;11.93;;;4.00;99.90;;;;;;4964123;28;20051;-79
2022/12/03 04:02:16;;;;;;;19.20;11.38;;;4.00;99.90;;;;;;4973507;28;20061;-79
2022/12/03 04:04:43;;;;;;;22.77;12.15;;;3.90;99.90;;;;;;4970014;28;20073;-79
2022/12/03 04:07:09;;;;;;;18.30;11.40;;;3.90;99.90;;;;;;4963185;28;20059;-79
2022/12/03 04:09:36;;;;;;;21.50;11.95;;;3.80;99.90;;;;;;4968233;28;20057;-79
2022/12/03 04:14:48;;;;;;;19.55;11.65;;;3.80;99.90;;;;;;4979078;28;20053;-79
2022/12/03 04:17:15;;;;;;;20.80;11.38;;;3.80;99.90;;;;;;4978394;28;20534;-79
2022/12/03 04:19:41;;;;;;;18.42;10.93;;;3.80;99.90;;;;;;4960119;28;20050;-78
2022/12/03 04:28:47;;;;;;;22.25;11.13;;;3.80;99.90;;;;;;4978201;28;20065;-79
2022/12/03 04:30:29;;;;;;;18.75;10.95;;;3.80;99.90;;;;;;4973589;28;20059;-78
2022/12/03 04:35:41;;;;;;;19.13;10.77;;;3.70;99.90;;;;;;4976262;28;20055;-78
2022/12/03 04:38:11;;;;;;;19.52;11.20;;;3.70;99.90;;;;;;4979766;28;20102;-79
2022/12/03 04:43:24;;;;;;;20.95;11.60;;;3.80;99.90;;;;;;4978320;28;20066;-79
2022/12/03 04:45:51;;;;;;;17.95;10.57;;;3.80;99.90;;;;;;4981200;28;20052;-79
2022/12/03 04:48:18;;;;;;;19.75;12.10;;;3.80;99.90;;;;;;4981455;28;20055;-79
2022/12/03 04:50:45;;;;;;;17.48;10.80;;;3.80;99.90;;;;;;4967063;28;20054;-79
2022/12/03 04:53:11;;;;;;;20.83;11.63;;;3.80;99.90;;;;;;4969041;28;20057;-79
2022/12/03 04:55:38;;;;;;;20.05;11.65;;;3.70;99.90;;;;;;4986087;28;20125;-79
2022/12/03 04:58:05;;;;;;;18.73;10.93;;;3.80;99.90;;;;;;4969421;28;20050;-79
2022/12/03 05:00:32;;;;;;;19.27;11.35;;;3.80;99.90;;;;;;4981430;28;20138;-79
2022/12/03 05:02:58;;;;;;;18.60;11.55;;;3.90;99.90;;;;;;4979515;28;20058;-79
2022/12/03 05:05:25;;;;;;;17.92;11.27;;;3.90;99.90;;;;;;4977638;28;20146;-79
2022/12/03 05:07:52;;;;;;;16.17;10.35;;;3.90;99.90;;;;;;4975459;28;20047;-78
2022/12/03 05:10:19;;;;;;;17.83;10.98;;;3.90;99.90;;;;;;4973462;28;20051;-78
2022/12/03 05:12:45;;;;;;;18.23;10.63;;;3.90;99.90;;;;;;4971451;28;20047;-79
2022/12/03 05:15:12;;;;;;;16.40;9.95;;;3.90;99.90;;;;;;4971404;28;20527;-79
2022/12/03 05:17:38;;;;;;;19.25;10.93;;;4.00;99.90;;;;;;4970025;28;20051;-78
2022/12/03 05:22:53;;;;;;;19.33;11.57;;;4.00;99.90;;;;;;4982816;28;20061;-78
2022/12/03 05:25:19;;;;;;;21.00;10.73;;;3.90;99.90;;;;;;4981239;28;20047;-80
2022/12/03 05:27:46;;;;;;;18.00;11.27;;;3.90;99.90;;;;;;4965401;28;20051;-79
2022/12/03 05:30:13;;;;;;;18.77;10.68;;;4.00;99.90;;;;;;4969395;28;20107;-78
2022/12/03 05:32:40;;;;;;;18.00;11.93;;;4.00;99.90;;;;;;4991956;28;20118;-79
2022/12/03 05:35:08;;;;;;;17.92;10.75;;;4.00;99.90;;;;;;4991891;28;20051;-79
2022/12/03 05:37:34;;;;;;;20.58;11.20;;;3.90;99.90;;;;;;4987883;28;20055;-79
2022/12/03 05:40:01;;;;;;;16.85;10.27;;;3.90;99.90;;;;;;4984613;28;20047;-77
2022/12/03 05:45:13;;;;;;;17.50;10.35;;;3.90;99.90;;;;;;4975871;28;20047;-77
2022/12/03 05:47:40;;;;;;;16.70;10.07;;;3.80;99.90;;;;;;4976671;28;20051;-78
2022/12/03 05:50:07;;;;;;;18.00;10.48;;;3.90;99.90;;;;;;4980294;28;20062;-78
2022/12/03 05:52:33;;;;;;;18.42;10.57;;;3.90;99.90;;;;;;4983255;28;20085;-78
2022/12/03 05:55:01;;;;;;;18.90;12.02;;;3.80;99.90;;;;;;4965707;28;20057;-78
2022/12/03 05:57:27;;;;;;;19.33;11.35;;;3.90;99.90;;;;;;4985026;28;20059;-78
2022/12/03 05:59:54;;;;;;;19.45;11.48;;;3.80;99.90;;;;;;4985007;28;20047;-77
2022/12/03 06:02:20;;;;;;;20.60;11.05;;;3.80;99.90;;;;;;4979849;28;20047;-78
2022/12/03 06:04:48;;;;;;;19.60;11.52;;;3.80;99.90;;;;;;4974990;28;20693;-78
2022/12/03 06:07:14;;;;;;;18.08;10.38;;;3.80;99.90;;;;;;4956480;28;20050;-77
2022/12/03 06:09:41;;;;;;;19.00;11.00;;;3.70;99.90;;;;;;4958846;28;20057;-78
2022/12/03 06:12:08;;;;;;;19.55;11.85;;;3.90;99.90;;;;;;4962081;28;20070;-78
2022/12/03 06:14:34;;;;;;;18.67;11.27;;;3.80;99.90;;;;;;4982026;28;20047;-78
2022/12/03 06:17:02;;;;;;;18.67;10.90;;;3.90;99.90;;;;;;4985264;28;20070;-77
2022/12/03 06:19:28;;;;;;;15.75;9.57;;;3.90;99.90;;;;;;4969146;28;20047;-78
2022/12/03 06:21:55;;;;;;;20.52;11.43;;;4.00;99.90;;;;;;4984502;28;20592;-78
2022/12/03 06:24:22;;;;;;;17.38;10.70;;;4.00;99.90;;;;;;4983716;28;20046;-78
2022/12/03 06:26:48;;;;;;;18.88;11.23;;;4.00;99.90;;;;;;4982532;28;20073;-78
2022/12/03 06:29:15;;;;;;;16.00;9.85;;;4.00;99.90;;;;;;4982677;28;20051;-78
2022/12/03 06:31:42;;;;;;;15.43;10.35;;;4.00;99.90;;;;;;4975992;28;20051;-78
2022/12/03 06:34:08;;;;;;;17.52;10.73;;;4.10;99.90;;;;;;4974892;28;20043;-78
2022/12/03 06:36:35;;;;;;;19.83;10.73;;;3.90;99.90;;;;;;4972738;28;20055;-78
2022/12/03 06:39:02;;;;;;;18.15;11.55;;;3.90;99.90;;;;;;4959970;28;20047;-78
2022/12/03 06:41:29;;;;;;;20.00;12.10;;;3.80;99.90;;;;;;4972288;28;20051;-78
2022/12/03 06:43:56;;;;;;;18.52;11.55;;;3.80;99.90;;;;;;4949944;28;20070;-78
2022/12/03 06:46:22;;;;;;;20.27;11.55;;;3.90;99.90;;;;;;4969641;28;20138;-77
2022/12/03 06:48:49;;;;;;;19.35;10.75;;;3.90;99.90;;;;;;4972223;28;20098;-78
2022/12/03 06:51:16;;;;;;;17.13;10.27;;;3.90;99.90;;;;;;4974327;28;20061;-78
2022/12/03 06:53:42;;;;;;;20.50;12.38;;;3.90;99.90;;;;;;4977473;28;20523;-77
2022/12/03 06:56:09;;;;;;;18.23;11.23;;;3.80;99.90;;;;;;4961480;28;20082;-78
2022/12/03 06:58:36;;;;;;;19.95;11.90;;;3.80;99.90;;;;;;4979653;28;20130;-78
2022/12/03 07:01:02;;;;;;;19.30;11.13;;;3.80;99.90;;;;;;4983796;28;20508;-78
2022/12/03 07:03:29;;;;;;;18.77;11.40;;;3.80;99.90;;;;;;4967075;28;20424;-78
2022/12/03 07:05:56;;;;;;;19.40;11.15;;;3.70;99.90;;;;;;4966834;28;20115;-78
2022/12/03 07:08:22;;;;;;;19.75;11.73;;;3.70;99.90;;;;;;4979189;28;20107;-78
2022/12/03 07:10:49;;;;;;;19.58;11.48;;;3.60;99.90;;;;;;4976197;28;20047;-78
2022/12/03 07:13:16;;;;;;;17.73;11.73;;;3.70;99.90;;;;;;4975134;28;20058;-78
2022/12/03 07:15:43;;;;;;;18.95;11.95;;;3.70;99.90;;;;;;4966422;28;20066;-78
2022/12/03 07:18:09;;;;;;;20.08;12.30;;;3.70;99.90;;;;;;4971192;28;20075;-78
2022/12/03 07:20:36;;;;;;;18.42;11.55;;;3.70;99.90;;;;;;4965763;28;20058;-78
2022/12/03 07:23:03;;;;;;;16.70;10.98;;;3.60;99.90;;;;;;4973338;28;20082;-78
2022/12/03 07:25:30;;;;;;;18.60;11.48;;;3.70;99.90;;;;;;4963822;28;20052;-78
2022/12/03 07:27:56;;;;;;;17.38;10.98;;;3.70;99.90;;;;;;4969852;28;20062;-78
2022/12/03 07:30:24;;;;;;;19.35;11.93;;;3.60;99.90;;;;;;4965183;29;20142;-79
2022/12/03 07:32:51;;;;;;;19.48;10.80;;;3.50;99.90;;;;;;4966703;29;20051;-78
2022/12/03 07:35:17;;;;;;;21.13;11.63;;;3.50;99.90;;;;;;4974302;28;20443;-79
2022/12/03 07:37:44;;;;;;;19.63;11.57;;;3.60;99.90;;;;;;4975386;28;20055;-77
2022/12/03 07:40:11;;;;;;;21.13;11.80;;;3.60;99.90;;;;;;4965437;28;20057;-79
2022/12/03 07:42:38;;;;;;;20.42;12.35;;;3.70;99.90;;;;;;4953091;28;20054;-79
2022/12/03 07:45:05;;;;;;;19.17;11.18;;;3.70;99.90;;;;;;4971094;28;20047;-78
2022/12/03 07:47:32;;;;;;;20.17;11.43;;;3.70;99.90;;;;;;4963965;28;20051;-80
2022/12/03 07:49:58;;;;;;;20.73;11.98;;;3.60;99.90;;;;;;4983712;28;20114;-79
2022/12/03 07:52:25;;;;;;;17.80;10.80;;;3.70;99.90;;;;;;4986856;28;20061;-79
2022/12/03 07:54:52;;;;;;;17.42;10.98;;;3.70;99.90;;;;;;4968318;28;20509;-79
2022/12/03 07:57:19;;;;;;;18.42;10.88;;;3.80;99.90;;;;;;4967215;28;20046;-78
2022/12/03 07:59:46;;;;;;;21.55;11.68;;;3.70;99.90;;;;;;4984734;28;20050;-78
2022/12/03 08:02:12;;;;;;;22.90;12.80;;;3.60;99.90;;;;;;4968061;28;20114;-79
2022/12/03 08:04:46;;;;;;;24.05;12.60;;;3.60;99.90;;;;;;4982142;28;20085;-78
2022/12/03 08:07:13;;;;;;;20.85;11.02;;;3.70;99.90;;;;;;4969722;28;20106;-79
2022/12/03 08:09:40;;;;;;;21.23;11.65;;;3.70;99.90;;;;;;4981580;28;20055;-78
2022/12/03 08:12:15;;;;;;;18.73;11.35;;;3.80;99.90;;;;;;4983528;28;20046;-79
2022/12/03 08:14:43;;;;;;;18.52;11.23;;;3.70;99.90;;;;;;4966234;28;20051;-79
2022/12/03 08:17:13;;;;;;;18.45;10.70;;;3.60;99.90;;;;;;4972657;28;20106;-79
2022/12/03 08:19:45;;;;;;;18.42;11.15;;;3.50;99.90;;;;;;4981383;28;20057;-79
2022/12/03 08:22:13;;;;;;;16.95;10.40;;;3.50;99.90;;;;;;4954131;28;20131;-79
2022/12/03 08:24:41;;;;;;;18.73;11.57;;;3.40;99.90;;;;;;4978744;28;20595;-78
2022/12/03 08:27:17;;;;;;;16.95;10.70;;;3.40;99.90;;;;;;4977223;28;20054;-79
2022/12/03 08:29:45;;;;;;;19.38;11.43;;;3.40;99.90;;;;;;4980006;28;20460;-79
2022/12/03 08:32:12;;;;;;;17.17;10.98;;;3.40;99.90;;;;;;4964769;28;20484;-78
2022/12/03 08:34:43;;;;;;;20.52;11.52;;;3.50;99.90;;;;;;4975711;28;20055;-79
2022/12/03 08:37:15;;;;;;;18.77;10.77;;;3.50;99.90;;;;;;4979319;28;20049;-79
2022/12/03 08:39:47;;;;;;;18.50;11.70;;;3.50;99.90;;;;;;4975424;28;20402;-79
2022/12/03 08:42:40;;;;;;;17.60;11.10;;;3.60;99.90;;;;;;4958176;28;20110;-79
2022/12/03 08:45:30;;;;;;;19.45;11.55;;;3.60;99.90;;;;;;4981683;28;20070;-79
2022/12/03 08:48:00;;;;;;;18.88;11.60;;;3.60;99.90;;;;;;4966554;28;20043;-79
2022/12/03 08:50:40;;;;;;;16.38;9.95;;;3.50;99.90;;;;;;4961960;28;20138;-80
2022/12/03 08:53:12;;;;;;;22.08;11.82;;;3.40;99.90;;;;;;4972680;28;20074;-79
2022/12/03 08:55:50;;;;;;;17.88;10.68;;;3.20;99.90;;;;;;4972787;28;20491;-79
2022/12/03 08:58:32;;;;;;;18.13;11.25;;;3.30;99.90;;;;;;4975546;28;20141;-79
2022/12/03 09:01:04;;;;;;;17.33;10.52;;;3.10;99.90;;;;;;4978220;28;20046;-80
2022/12/03 09:03:32;;;;;;;20.20;11.50;;;3.10;99.90;;;;;;4972503;28;20150;-79
2022/12/03 09:05:58;;;;;;;17.08;11.35;;;3.00;99.90;;;;;;4983795;28;20059;-79
2022/12/03 09:08:25;;;;;;;18.83;11.02;;;3.00;99.90;;;;;;4968813;28;20066;-79
2022/12/03 09:10:52;;;;;;;18.02;10.90;;;3.10;99.90;;;;;;4986475;28;20051;-79
2022/12/03 09:13:19;;;;;;;20.30;11.82;;;3.20;99.90;;;;;;4978448;28;20045;-79
2022/12/03 09:15:45;;;;;;;16.60;9.80;;;3.20;99.90;;;;;;4962091;28;20433;-78
2022/12/03 09:18:13;;;;;;;18.73;10.88;;;3.20;99.90;;;;;;4976627;28;20126;-79
2022/12/03 09:20:40;;;;;;;18.67;9.38;;;3.20;99.90;;;;;;4962209;28;20047;-78
2022/12/03 09:23:07;;;;;;;18.38;10.80;;;3.20;99.90;;;;;;4984566;28;20043;-79
2022/12/03 09:25:33;;;;;;;16.23;10.48;;;3.30;99.90;;;;;;4978694;28;20047;-79
2022/12/03 09:28:00;;;;;;;19.92;11.88;;;3.30;99.90;;;;;;4976412;28;20054;-80
2022/12/03 09:30:27;;;;;;;17.58;10.30;;;3.40;99.90;;;;;;4973755;28;20657;-77
2022/12/03 09:32:54;;;;;;;18.77;10.75;;;3.50;99.90;;;;;;4972784;28;20053;-78
2022/12/03 09:35:36;;;;;;;18.45;10.98;;;3.60;99.90;;;;;;4943180;28;20122;-78
2022/12/03 09:38:02;;;;;;;15.88;9.88;;;3.60;99.90;;;;;;4979122;28;20073;-79
2022/12/03 09:40:29;;;;;;;20.50;11.95;;;3.40;99.90;;;;;;4977215;28;20587;-81
2022/12/03 09:42:57;;;;;;;16.25;10.23;;;3.40;99.90;;;;;;4977648;28;20058;-78
2022/12/03 09:45:24;;;;;;;18.70;10.43;;;3.40;99.90;;;;;;4976521;28;20062;-79
2022/12/03 09:47:51;;;;;;;16.75;10.77;;;3.40;99.90;;;;;;4949956;28;20142;-79
2022/12/03 09:50:21;;;;;;;17.85;11.85;;;3.50;99.90;;;;;;4975916;28;20059;-80
2022/12/03 09:52:48;;;;;;;;;;;3.50;99.90;;;;;;4973116;28;20142;-80
2022/12/03 09:55:21;;;;;;;21.67;11.40;;;3.60;99.90;;;;;;4977387;28;19922;-80
2022/12/03 09:57:48;;;;;;;19.65;11.10;;;3.60;99.90;;;;;;4976447;28;20067;-79
2022/12/03 10:00:17;;;;;;;18.73;11.73;;;3.70;99.90;;;;;;4963279;28;20057;-79
2022/12/03 10:02:48;;;;;;;20.45;12.98;;;3.60;99.90;;;;;;4978167;28;20042;-79
2022/12/03 10:05:17;;;;;;;18.60;11.65;;;3.50;99.90;;;;;;4987308;28;20058;-79
2022/12/03 10:07:44;;;;;;;18.08;11.48;;;3.60;99.90;;;;;;4980972;28;20142;-79
2022/12/03 10:10:17;;;;;;;21.45;12.43;;;3.50;99.90;;;;;;4963774;28;20110;-79
2022/12/03 10:12:44;;;;;;;19.17;11.48;;;3.60;99.90;;;;;;4959006;28;20079;-80
2022/12/03 10:15:13;;;;;;;21.00;12.45;;;3.60;99.90;;;;;;4975589;28;20126;-79
2022/12/03 10:17:41;;;;;;;18.67;12.20;;;3.60;99.90;;;;;;4977642;28;20599;-78
2022/12/03 10:20:11;;;;;;;20.02;11.80;;;3.60;99.90;;;;;;4958196;28;20043;-79
2022/12/03 10:22:38;;;;;;;19.83;13.07;;;3.70;99.90;;;;;;4974441;28;20069;-79
2022/12/03 10:25:08;;;;;;;19.35;12.15;;;3.70;99.90;;;;;;4973642;28;20074;-80
2022/12/03 10:27:38;;;;;;;20.23;11.57;;;3.70;99.90;;;;;;4954701;28;20050;-80
2022/12/03 10:30:18;;;;;;;22.77;11.80;;;3.80;99.90;;;;;;4974270;28;20057;-79
2022/12/03 10:32:48;;;;;;;18.50;11.52;;;3.90;99.90;;;;;;4968631;28;20070;-79
2022/12/03 10:35:39;;;;;;;18.45;12.13;;;4.00;99.90;;;;;;4958689;28;20082;-80
2022/12/03 10:38:24;;;;;;;17.58;10.45;;;4.00;99.90;;;;;;4973443;28;20066;-80
2022/12/03 10:40:50;;;;;;;19.75;11.77;;;4.00;99.90;;;;;;4966940;28;20091;-80
2022/12/03 10:43:17;;;;;;;19.42;11.50;;;3.90;99.90;;;;;;4993383;28;20031;-79
2022/12/03 10:45:50;;;;;;;17.92;11.98;;;4.00;99.90;;;;;;4997489;28;20069;-80
2022/12/03 10:48:20;;;;;;;18.63;11.95;;;3.90;99.90;;;;;;4985635;28;20046;-80
2022/12/03 10:51:02;;;;;;;17.92;10.93;;;3.90;99.90;;;;;;4996681;28;20074;-79
2022/12/03 10:53:30;;;;;;;19.42;11.70;;;4.00;99.90;;;;;;4959187;28;20051;-78
2022/12/03 10:56:00;;;;;;;17.80;11.48;;;4.00;99.90;;;;;;4960396;28;20051;-80
2022/12/03 10:58:36;;;;;;;20.15;12.25;;;4.00;99.90;;;;;;4973729;28;20061;-80
2022/12/03 11:01:14;;;;;;;18.83;11.35;;;4.00;99.90;;;;;;4979302;28;20417;-79
2022/12/03 11:03:41;;;;;;;19.25;11.63;;;3.90;99.90;;;;;;4972890;28;20062;-79
2022/12/03 11:06:15;;;;;;;17.70;11.30;;;3.90;99.90;;;;;;4974206;28;20047;-79
2022/12/03 11:08:44;;;;;;;18.40;11.38;;;3.90;99.90;;;;;;4974206;28;20063;-79
2022/12/03 11:11:23;;;;;;;18.45;11.20;;;3.90;99.90;;;;;;4963426;28;20050;-79
2022/12/03 11:13:56;;;;;;;18.55;11.52;;;4.00;99.90;;;;;;4979397;28;20047;-79
2022/12/03 11:16:38;;;;;;;17.67;11.52;;;3.90;99.90;;;;;;4964805;28;20051;-80
2022/12/03 11:19:40;;;;;;;20.48;11.90;;;3.90;99.90;;;;;;4954499;28;20365;-77
2022/12/03 11:22:09;;;;;;;20.13;11.60;;;3.90;99.90;;;;;;4976372;28;20122;-79
2022/12/03 11:24:38;;;;;;;20.65;12.38;;;4.00;99.90;;;;;;4982191;28;20090;-80
2022/12/03 11:27:07;;;;;;;17.80;10.70;;;4.00;99.90;;;;;;4977492;28;20058;-77
2022/12/03 11:30:00;;;;;;;17.13;11.10;;;4.00;99.90;;;;;;4978285;28;20051;-78
2022/12/03 11:32:42;;;;;;;19.77;12.18;;;4.10;99.90;;;;;;4977616;28;20051;-79
2022/12/03 11:35:26;;;;;;;18.60;11.35;;;4.00;99.90;;;;;;4977418;28;20066;-79
2022/12/03 11:37:53;;;;;;;18.35;11.55;;;3.80;99.90;;;;;;4960652;28;20416;-79
2022/12/03 11:40:19;;;;;;;19.30;12.27;;;3.80;99.90;;;;;;4965676;28;20137;-79
2022/12/03 11:42:47;;;;;;;23.17;15.90;;;3.90;99.90;;;;;;4974321;28;20070;-79
2022/12/03 11:45:17;;;;;;;26.70;16.08;;;3.90;99.90;;;;;;4982354;28;20508;-79
2022/12/03 11:47:58;;;;;;;23.30;14.30;;;3.90;99.90;;;;;;4971807;28;20067;-80
2022/12/03 11:50:34;;;;;;;20.08;11.27;;;3.90;99.90;;;;;;4983415;28;20050;-80
2022/12/03 11:53:11;;;;;;;20.77;12.52;;;4.00;99.90;;;;;;4985460;28;20066;-80
2022/12/03 11:55:43;;;;;;;16.45;9.35;;;4.00;99.90;;;;;;4977634;28;20082;-79
2022/12/03 11:58:27;;;;;;;42.33;19.95;;;3.90;99.90;;;;;;4974160;28;20538;-79
2022/12/03 12:00:56;;;;;;;19.30;11.60;;;3.70;99.90;;;;;;4956328;28;20047;-79
2022/12/03 12:03:35;;;;;;;18.48;11.13;;;3.60;99.90;;;;;;4974930;28;20075;-79
2022/12/03 12:06:33;;;;;;;19.13;11.52;;;3.70;99.90;;;;;;4962464;28;20524;-79
2022/12/03 12:09:02;;;;;;;19.63;11.65;;;3.70;99.90;;;;;;4966215;28;20084;-79
2022/12/03 12:11:32;;;;;;;18.33;11.75;;;3.80;99.90;;;;;;4975708;28;20055;-79
2022/12/03 12:14:08;;;;;;;19.48;11.77;;;3.80;99.90;;;;;;4961909;28;20067;-79
2022/12/03 12:16:49;;;;;;;20.70;11.73;;;3.80;99.90;;;;;;4973555;28;20398;-79
2022/12/03 12:19:30;;;;;;;17.95;10.85;;;3.80;99.90;;;;;;4978596;28;20065;-80
2022/12/03 12:22:21;;;;;;;20.05;11.95;;;3.70;99.90;;;;;;4976843;28;20768;-79
2022/12/03 12:24:56;;;;;;;18.40;10.57;;;3.80;99.90;;;;;;4972327;28;20054;-80
2022/12/03 12:27:44;;;;;;;18.65;10.63;;;3.80;99.90;;;;;;4974379;28;20054;-79
2022/12/03 12:30:16;;;;;;;18.35;11.88;;;3.90;99.90;;;;;;4972559;28;20134;-78
2022/12/03 12:33:04;;;;;;;20.30;12.23;;;3.90;99.90;;;;;;4977086;28;20127;-79
2022/12/03 12:35:31;;;;;;;19.00;11.27;;;3.90;99.90;;;;;;4973239;28;20048;-79
2022/12/03 12:38:09;;;;;;;20.08;11.57;;;3.90;99.90;;;;;;4977051;28;20054;-78
2022/12/03 12:40:39;;;;;;;17.58;11.02;;;3.90;99.90;;;;;;4975794;28;20055;-80
2022/12/03 12:43:29;;;;;;;22.90;11.80;;;3.90;99.90;;;;;;4963236;28;20047;-79
2022/12/03 12:46:00;;;;;;;20.45;11.80;;;3.90;99.90;;;;;;4971053;28;20560;-79
2022/12/03 12:48:47;;;;;;;22.63;12.52;;;3.90;99.90;;;;;;4971865;28;20047;-79
2022/12/03 12:51:17;;;;;;;22.13;13.07;;;4.00;99.90;;;;;;4975788;28;20055;-79
2022/12/03 12:53:44;;;;;;;21.67;12.73;;;4.00;99.90;;;;;;4975030;28;20102;-79
2022/12/03 12:56:28;;;;;;;22.30;12.40;;;4.00;99.90;;;;;;4983696;28;20054;-80
2022/12/03 12:59:09;;;;;;;19.95;12.30;;;3.80;99.90;;;;;;4962220;28;20055;-78
2022/12/03 13:01:36;;;;;;;23.42;12.93;;;3.80;99.90;;;;;;4981288;28;20071;-78
2022/12/03 13:04:12;;;;;;;19.75;11.95;;;3.70;99.90;;;;;;4979998;28;20043;-77
2022/12/03 13:06:39;;;;;;;19.15;12.30;;;3.80;99.90;;;;;;4978402;28;20043;-79
2022/12/03 13:09:25;;;;;;;19.65;12.45;;;3.90;99.90;;;;;;4953668;28;20059;-79
2022/12/03 13:11:58;;;;;;;19.45;11.27;;;4.00;99.90;;;;;;4982498;28;20062;-79